createdAt,value
2023-05-05T00:02:03.245Z,11.3
2023-05-05T00:05:03.240Z,11.3
2023-05-05T00:08:03.232Z,11.3
2023-05-05T00:11:03.232Z,11.3
2023-05-05T00:14:03.249Z,11.3
2023-05-05T00:17:03.272Z,11.3
2023-05-05T00:20:03.251Z,11.3
2023-05-05T00:23:03.257Z,11.3
2023-05-05T00:26:03.263Z,11.3
2023-05-05T00:29:03.268Z,11.3
2023-05-05T00:32:03.281Z,11.3
2023-05-05T00:35:03.298Z,11.3
2023-05-05T00:38:03.285Z,11.3
2023-05-05T00:41:03.295Z,11.3
2023-05-05T00:44:03.312Z,11.3
2023-05-05T00:47:03.323Z,11.3
2023-05-05T00:50:03.324Z,11.3
2023-05-05T00:53:03.352Z,11.3
2023-05-05T00:56:03.355Z,11.2
2023-05-05T00:59:03.351Z,11.2
2023-05-05T01:02:03.418Z,11.2
2023-05-05T01:05:03.373Z,11.2
2023-05-05T01:08:03.370Z,11.2
2023-05-05T01:11:03.371Z,11.2
2023-05-05T01:14:03.362Z,11.2
2023-05-05T01:17:03.366Z,11.2
2023-05-05T01:20:03.368Z,11.2
2023-05-05T01:23:03.454Z,11.2
2023-05-05T01:26:03.375Z,11.2
2023-05-05T01:29:03.380Z,11.2
2023-05-05T01:32:03.419Z,11.2
2023-05-05T01:35:03.382Z,11.2
2023-05-05T01:38:03.382Z,11.1
2023-05-05T01:41:03.396Z,11.2
2023-05-05T01:44:03.383Z,11.1
2023-05-05T01:47:03.406Z,11.2
2023-05-05T01:50:03.402Z,11.1
2023-05-05T01:53:03.384Z,11.1
2023-05-05T01:56:03.389Z,11.1
2023-05-05T01:59:03.391Z,11.1
2023-05-05T02:02:03.546Z,11.1
2023-05-05T02:05:03.399Z,11.1
2023-05-05T02:08:03.397Z,11.1
2023-05-05T02:11:03.400Z,11.1
2023-05-05T02:14:03.448Z,11.1
2023-05-05T02:17:03.409Z,11.1
2023-05-05T02:20:03.414Z,11.1
2023-05-05T02:23:03.414Z,11.1
2023-05-05T02:26:03.409Z,11.1
2023-05-05T02:29:03.420Z,11.1
2023-05-05T02:32:03.422Z,11.1
2023-05-05T02:35:03.426Z,11.1
2023-05-05T02:38:03.418Z,11.1
2023-05-05T02:41:03.417Z,11.1
2023-05-05T02:44:03.428Z,11.1
2023-05-05T02:47:03.426Z,11.1
2023-05-05T02:50:03.421Z,11.1
2023-05-05T02:53:03.433Z,11.1
2023-05-05T02:56:03.435Z,11.1
2023-05-05T02:59:03.441Z,11.1
2023-05-05T03:02:03.450Z,11.1
2023-05-05T03:05:03.438Z,11.1
2023-05-05T03:08:03.446Z,11.1
2023-05-05T03:11:03.443Z,11.1
2023-05-05T03:14:03.434Z,11.1
2023-05-05T03:17:03.445Z,11.1
2023-05-05T03:20:03.883Z,11.1
2023-05-05T03:23:03.454Z,11.1
2023-05-05T03:26:03.463Z,11
2023-05-05T03:29:03.476Z,11
2023-05-05T03:32:03.488Z,11
2023-05-05T03:35:03.472Z,11
2023-05-05T03:38:03.483Z,11
2023-05-05T03:41:03.480Z,11
2023-05-05T03:44:03.475Z,11
2023-05-05T03:47:03.480Z,11
2023-05-05T03:50:03.480Z,11
2023-05-05T03:53:03.506Z,11
2023-05-05T03:56:03.495Z,11
2023-05-05T03:59:03.490Z,11
2023-05-05T04:02:03.503Z,11
2023-05-05T04:05:03.493Z,11
2023-05-05T04:08:03.494Z,11
2023-05-05T04:11:03.509Z,10.9
2023-05-05T04:14:03.504Z,10.9
2023-05-05T04:17:03.546Z,10.9
2023-05-05T04:20:03.526Z,10.9
2023-05-05T04:23:03.522Z,10.9
2023-05-05T04:26:03.562Z,10.9
2023-05-05T04:29:03.526Z,10.9
2023-05-05T04:32:03.547Z,10.9
2023-05-05T04:35:03.550Z,10.9
2023-05-05T04:38:03.579Z,10.9
2023-05-05T04:41:03.556Z,10.9
2023-05-05T04:44:03.585Z,10.9
2023-05-05T04:47:03.536Z,10.9
2023-05-05T04:50:03.564Z,10.9
2023-05-05T04:53:03.546Z,10.9
2023-05-05T04:56:03.557Z,10.9
2023-05-05T04:59:03.565Z,10.9
2023-05-05T05:02:03.592Z,10.9
2023-05-05T05:05:03.582Z,10.9
2023-05-05T05:08:03.569Z,10.9
2023-05-05T05:11:03.600Z,10.9
2023-05-05T05:14:03.572Z,10.9
2023-05-05T05:17:03.582Z,10.9
2023-05-05T05:20:03.633Z,10.9
2023-05-05T05:23:03.585Z,10.9
2023-05-05T05:26:03.595Z,10.9
2023-05-05T05:29:03.627Z,10.9
2023-05-05T05:32:03.643Z,10.9
2023-05-05T05:35:03.639Z,10.9
2023-05-05T05:38:03.649Z,10.9
2023-05-05T05:41:03.610Z,10.9
2023-05-05T05:44:03.614Z,10.8
2023-05-05T05:47:03.631Z,10.8
2023-05-05T05:50:03.662Z,10.9
2023-05-05T05:53:03.716Z,10.8
2023-05-05T05:56:03.644Z,10.8
2023-05-05T05:59:03.692Z,10.8
2023-05-05T06:02:03.656Z,10.8
2023-05-05T06:05:03.646Z,10.8
2023-05-05T06:08:03.647Z,10.8
2023-05-05T06:11:03.671Z,10.8
2023-05-05T06:14:03.634Z,10.8
2023-05-05T06:17:03.634Z,10.8
2023-05-05T06:20:03.634Z,10.8
2023-05-05T06:23:03.639Z,10.8
2023-05-05T06:26:03.662Z,10.8
2023-05-05T06:29:03.651Z,10.8
2023-05-05T06:32:03.699Z,10.8
2023-05-05T06:35:03.708Z,10.8
2023-05-05T06:38:03.710Z,10.8
2023-05-05T06:41:03.709Z,10.8
2023-05-05T06:44:03.736Z,10.8
2023-05-05T06:47:03.762Z,10.8
2023-05-05T06:50:03.763Z,10.8
2023-05-05T06:53:03.685Z,10.8
2023-05-05T06:56:03.719Z,10.8
2023-05-05T06:59:03.728Z,10.8
2023-05-05T07:05:03.754Z,10.8
2023-05-05T07:08:03.773Z,10.8
2023-05-05T07:11:03.784Z,10.8
2023-05-05T07:14:03.760Z,10.8
2023-05-05T07:17:03.771Z,10.8
2023-05-05T07:20:03.876Z,10.8
2023-05-05T07:23:03.757Z,10.8
2023-05-05T07:26:03.765Z,10.8
2023-05-05T07:29:03.799Z,10.8
2023-05-05T07:32:03.795Z,10.8
2023-05-05T07:35:03.812Z,10.7
2023-05-05T07:38:03.843Z,10.7
2023-05-05T07:41:03.823Z,10.7
2023-05-05T07:44:03.804Z,10.7
2023-05-05T07:47:03.800Z,10.7
2023-05-05T07:50:03.816Z,10.7
2023-05-05T07:53:13.477Z,10.7
2023-05-05T07:56:03.862Z,10.7
2023-05-05T07:59:03.837Z,10.7
2023-05-05T08:02:03.846Z,10.7
2023-05-05T08:05:03.851Z,10.7
2023-05-05T08:08:03.871Z,10.7
2023-05-05T08:11:03.891Z,10.7
2023-05-05T08:14:03.868Z,10.7
2023-05-05T08:17:03.890Z,10.7
2023-05-05T08:20:03.890Z,10.7
2023-05-05T08:23:03.948Z,10.7
2023-05-05T08:26:03.870Z,10.7
2023-05-05T08:29:03.886Z,10.7
2023-05-05T08:32:03.916Z,10.7
2023-05-05T08:35:03.946Z,10.7
2023-05-05T08:38:03.917Z,10.7
2023-05-05T08:41:03.923Z,10.7
2023-05-05T08:44:03.950Z,10.7
2023-05-05T08:47:03.953Z,10.7
2023-05-05T08:50:03.943Z,10.7
2023-05-05T08:53:04.005Z,10.7
2023-05-05T08:56:03.979Z,10.7
2023-05-05T08:59:03.976Z,10.7
2023-05-05T09:02:03.996Z,10.7
2023-05-05T09:05:03.977Z,10.7
2023-05-05T09:08:04.006Z,10.7
2023-05-05T09:11:03.992Z,10.7
2023-05-05T09:14:04.054Z,10.7
2023-05-05T09:17:04.090Z,10.7
2023-05-05T09:20:04.029Z,10.7
2023-05-05T09:23:04.021Z,10.7
2023-05-05T09:26:04.030Z,10.7
2023-05-05T09:29:04.091Z,10.7
2023-05-05T09:32:04.049Z,10.7
2023-05-05T09:35:04.104Z,10.7
2023-05-05T09:38:04.057Z,10.7
2023-05-05T09:41:04.119Z,10.7
2023-05-05T09:44:04.088Z,10.7
2023-05-05T09:47:07.289Z,10.7
2023-05-05T09:50:04.130Z,10.7
2023-05-05T09:53:04.108Z,10.7
2023-05-05T09:56:04.120Z,10.7
2023-05-05T09:59:04.147Z,10.7
2023-05-05T10:02:04.130Z,10.7
2023-05-05T10:05:04.162Z,10.7
2023-05-05T10:08:04.162Z,10.7
2023-05-05T10:11:04.160Z,10.7
2023-05-05T10:14:04.198Z,10.7
2023-05-05T10:17:04.155Z,10.7
2023-05-05T10:20:04.172Z,10.7
2023-05-05T10:23:04.197Z,10.7
2023-05-05T10:26:04.202Z,10.7
2023-05-05T10:29:04.206Z,10.7
2023-05-05T10:32:16.485Z,10.7
2023-05-05T10:35:04.241Z,10.7
2023-05-05T10:38:04.246Z,10.7
2023-05-05T10:41:04.265Z,10.7
2023-05-05T10:44:04.648Z,10.7
2023-05-05T10:47:04.285Z,10.7
2023-05-05T10:50:04.280Z,10.7
2023-05-05T10:53:04.295Z,10.8
2023-05-05T10:56:04.312Z,10.8
2023-05-05T10:59:04.313Z,10.8
2023-05-05T11:02:04.320Z,10.8
2023-05-05T11:05:04.333Z,10.8
2023-05-05T11:08:04.344Z,10.8
2023-05-05T11:11:04.360Z,10.8
2023-05-05T11:14:04.361Z,10.8
2023-05-05T11:17:04.406Z,10.8
2023-05-05T11:20:04.383Z,10.8
2023-05-05T11:23:04.958Z,10.8
2023-05-05T11:26:04.399Z,10.8
2023-05-05T11:29:04.403Z,10.8
2023-05-05T11:32:04.413Z,10.8
2023-05-05T11:35:04.414Z,10.8
2023-05-05T11:38:04.415Z,10.8
2023-05-05T11:41:04.421Z,10.8
2023-05-05T11:44:04.423Z,10.8
2023-05-05T11:47:04.472Z,10.8
2023-05-05T11:50:04.449Z,10.8
2023-05-05T11:53:04.432Z,10.8
2023-05-05T11:56:04.439Z,10.8
2023-05-05T11:59:04.445Z,10.9
2023-05-05T12:02:04.466Z,10.9
2023-05-05T12:05:04.486Z,10.9
2023-05-05T12:08:04.462Z,10.9
2023-05-05T12:11:04.476Z,10.9
2023-05-05T12:14:04.476Z,10.9
2023-05-05T12:17:04.481Z,10.9
2023-05-05T12:20:04.488Z,10.9
2023-05-05T12:23:04.575Z,10.9
2023-05-05T12:26:04.492Z,10.9
2023-05-05T12:29:04.497Z,10.9
2023-05-05T12:32:04.573Z,10.9
2023-05-05T12:35:04.511Z,10.9
2023-05-05T12:38:04.527Z,10.9
2023-05-05T12:41:04.519Z,10.9
2023-05-05T12:44:04.523Z,10.9
2023-05-05T12:47:04.533Z,11
2023-05-05T12:50:04.532Z,10.9
2023-05-05T12:53:04.530Z,11
2023-05-05T12:56:04.533Z,11
2023-05-05T12:59:04.554Z,11
2023-05-05T13:02:04.581Z,11
2023-05-05T13:05:04.548Z,11
2023-05-05T13:08:04.557Z,11
2023-05-05T13:11:04.558Z,11
2023-05-05T13:14:04.573Z,11.1
2023-05-05T13:17:04.572Z,11.1
2023-05-05T13:20:04.566Z,11.1
2023-05-05T13:23:04.564Z,11.1
2023-05-05T13:26:04.572Z,11.1
2023-05-05T13:29:04.577Z,11.1
2023-05-05T13:32:04.587Z,11.1
2023-05-05T13:35:04.592Z,11.1
2023-05-05T13:38:04.590Z,11.1
2023-05-05T13:41:04.601Z,11.1
2023-05-05T13:44:04.612Z,11.1
2023-05-05T13:47:04.676Z,11.1
2023-05-05T13:50:04.642Z,11.1
2023-05-05T13:53:04.608Z,11.2
2023-05-05T13:56:04.619Z,11.2
2023-05-05T13:59:04.624Z,11.2
2023-05-05T14:02:04.630Z,11.2
2023-05-05T14:05:04.622Z,11.2
2023-05-05T14:08:04.630Z,11.2
2023-05-05T14:11:04.636Z,11.2
2023-05-05T14:14:04.632Z,11.2
2023-05-05T14:17:04.737Z,11.2
2023-05-05T14:20:04.667Z,11.3
2023-05-05T14:23:04.638Z,11.3
2023-05-05T14:26:04.648Z,11.3
2023-05-05T14:29:04.650Z,11.3
2023-05-05T14:32:04.695Z,11.3
2023-05-05T14:35:04.674Z,11.3
2023-05-05T14:38:04.731Z,11.3
2023-05-05T14:41:04.665Z,11.3
2023-05-05T14:44:04.670Z,11.3
2023-05-05T14:47:04.677Z,11.3
2023-05-05T14:50:04.744Z,11.3
2023-05-05T14:53:04.720Z,11.3
2023-05-05T14:56:04.714Z,11.3
2023-05-05T14:59:04.718Z,11.3
2023-05-05T15:02:04.760Z,11.3
2023-05-05T15:05:04.730Z,11.4
2023-05-05T15:08:04.737Z,11.4
2023-05-05T15:11:04.752Z,11.4
2023-05-05T15:14:04.755Z,11.4
2023-05-05T15:17:04.759Z,11.4
2023-05-05T15:20:04.797Z,11.4
2023-05-05T15:23:04.769Z,11.4
2023-05-05T15:26:04.792Z,11.4
2023-05-05T15:29:04.790Z,11.4
2023-05-05T15:32:04.923Z,11.4
2023-05-05T15:35:04.823Z,11.4
2023-05-05T15:38:04.798Z,11.4
2023-05-05T15:41:04.790Z,11.4
2023-05-05T15:44:04.819Z,11.4
2023-05-05T15:47:04.813Z,11.4
2023-05-05T15:50:04.819Z,11.4
2023-05-05T15:53:04.825Z,11.4
2023-05-05T15:56:04.876Z,11.5
2023-05-05T15:59:04.835Z,11.4
2023-05-05T16:02:04.835Z,11.5
2023-05-05T16:05:04.908Z,11.5
2023-05-05T16:08:04.845Z,11.5
2023-05-05T16:11:04.853Z,11.5
2023-05-05T16:14:04.859Z,11.5
2023-05-05T16:17:04.866Z,11.5
2023-05-05T16:20:04.860Z,11.5
2023-05-05T16:23:04.860Z,11.5
2023-05-05T16:26:04.866Z,11.5
2023-05-05T16:29:04.882Z,11.5
2023-05-05T16:32:04.900Z,11.6
2023-05-05T16:35:04.884Z,11.6
2023-05-05T16:38:04.894Z,11.6
2023-05-05T16:41:04.904Z,11.6
2023-05-05T16:44:04.897Z,11.6
2023-05-05T16:47:04.896Z,11.6
2023-05-05T16:50:04.955Z,11.6
2023-05-05T16:53:04.930Z,11.6
2023-05-05T16:56:04.902Z,11.6
2023-05-05T16:59:05.004Z,11.6
2023-05-05T17:02:04.982Z,11.6
2023-05-05T17:05:04.970Z,11.6
2023-05-05T17:08:04.929Z,11.6
2023-05-05T17:11:04.930Z,11.6
2023-05-05T17:14:04.975Z,11.6
2023-05-05T17:17:04.946Z,11.6
2023-05-05T17:20:04.955Z,11.6
2023-05-05T17:23:04.969Z,11.6
2023-05-05T17:26:04.961Z,11.6
2023-05-05T17:29:05.015Z,11.6
2023-05-05T17:32:05.079Z,11.7
2023-05-05T17:35:05.051Z,11.7
2023-05-05T17:38:04.992Z,11.7
2023-05-05T17:41:05.018Z,11.7
2023-05-05T17:44:04.999Z,11.7
2023-05-05T17:47:04.995Z,11.7
2023-05-05T17:50:04.989Z,11.7
2023-05-05T17:53:05.030Z,11.7
2023-05-05T17:56:06.611Z,11.7
2023-05-05T17:59:05.086Z,11.7
2023-05-05T18:02:05.086Z,11.7
2023-05-05T18:05:05.024Z,11.8
2023-05-05T18:08:05.022Z,11.7
2023-05-05T18:11:05.108Z,11.8
2023-05-05T18:14:05.121Z,11.8
2023-05-05T18:17:05.146Z,11.8
2023-05-05T18:20:05.074Z,11.8
2023-05-05T18:23:05.074Z,11.8
2023-05-05T18:26:05.059Z,11.8
2023-05-05T18:29:05.057Z,11.8
2023-05-05T18:32:05.070Z,11.8
2023-05-05T18:35:05.094Z,11.8
2023-05-05T18:38:05.077Z,11.8
2023-05-05T18:41:05.092Z,11.8
2023-05-05T18:44:05.119Z,11.8
2023-05-05T18:47:05.222Z,11.8
2023-05-05T18:50:05.104Z,11.8
2023-05-05T18:53:05.124Z,11.8
2023-05-05T18:56:05.141Z,11.8
2023-05-05T18:59:05.172Z,11.8
2023-05-05T19:02:05.113Z,11.8
2023-05-05T19:05:05.167Z,11.8
2023-05-05T19:08:05.116Z,11.8
2023-05-05T19:11:05.124Z,11.8
2023-05-05T19:14:05.135Z,11.8
2023-05-05T19:17:05.309Z,11.8
2023-05-05T19:20:05.134Z,11.8
2023-05-05T19:23:05.179Z,11.8
2023-05-05T19:26:05.152Z,11.8
2023-05-05T19:29:05.177Z,11.8
2023-05-05T19:32:05.169Z,11.8
2023-05-05T19:35:05.195Z,11.8
2023-05-05T19:38:05.168Z,11.8
2023-05-05T19:41:05.169Z,11.8
2023-05-05T19:44:05.180Z,11.8
2023-05-05T19:47:05.174Z,11.8
2023-05-05T19:50:05.195Z,11.8
2023-05-05T19:53:05.321Z,11.9
2023-05-05T19:56:05.195Z,11.8
2023-05-05T19:59:05.236Z,11.8
2023-05-05T20:02:05.204Z,11.9
2023-05-05T20:05:05.206Z,11.8
2023-05-05T20:08:05.306Z,11.9
2023-05-05T20:11:05.213Z,11.9
2023-05-05T20:14:05.239Z,11.9
2023-05-05T20:17:05.237Z,11.9
2023-05-05T20:20:05.230Z,11.8
2023-05-05T20:23:05.255Z,11.9
2023-05-05T20:26:05.254Z,11.9
2023-05-05T20:29:05.298Z,11.9
2023-05-05T20:32:05.268Z,11.9
2023-05-05T20:35:05.270Z,11.9
2023-05-05T20:38:05.301Z,11.9
2023-05-05T20:41:05.285Z,11.9
2023-05-05T20:44:05.300Z,11.9
2023-05-05T20:47:05.362Z,11.9
2023-05-05T20:50:05.294Z,11.9
2023-05-05T20:53:05.298Z,11.9
2023-05-05T20:56:06.388Z,11.9
2023-05-05T20:59:05.307Z,11.9
2023-05-05T21:02:05.331Z,11.9
2023-05-05T21:05:05.312Z,11.9
2023-05-05T21:08:05.313Z,11.9
2023-05-05T21:11:05.361Z,11.9
2023-05-05T21:14:05.336Z,11.9
2023-05-05T21:17:05.384Z,11.9
2023-05-05T21:20:05.369Z,11.9
2023-05-05T21:23:05.376Z,11.9
2023-05-05T21:26:05.342Z,11.9
2023-05-05T21:29:05.351Z,11.9
2023-05-05T21:32:05.380Z,11.9
2023-05-05T21:35:05.361Z,11.9
2023-05-05T21:38:05.375Z,11.9
2023-05-05T21:41:05.397Z,11.9
2023-05-05T21:44:05.376Z,11.9
2023-05-05T21:47:05.400Z,11.9
2023-05-05T21:50:05.392Z,11.9
2023-05-05T21:53:05.381Z,11.9
2023-05-05T21:56:05.394Z,11.9
2023-05-05T21:59:05.417Z,11.9
2023-05-05T22:02:05.401Z,11.9
2023-05-05T22:05:05.399Z,11.9
2023-05-05T22:08:05.410Z,11.9
2023-05-05T22:11:05.403Z,11.9
2023-05-05T22:14:05.412Z,11.9
2023-05-05T22:17:05.408Z,11.9
2023-05-05T22:20:05.418Z,11.9
2023-05-05T22:23:05.432Z,11.9
2023-05-05T22:26:05.423Z,11.9
2023-05-05T22:29:05.434Z,11.9
2023-05-05T22:32:05.456Z,11.9
2023-05-05T22:35:05.444Z,11.9
2023-05-05T22:38:05.448Z,11.9
2023-05-05T22:41:05.453Z,11.9
2023-05-05T22:44:05.458Z,11.9
2023-05-05T22:47:05.525Z,11.9
2023-05-05T22:50:05.473Z,11.9
2023-05-05T22:53:05.641Z,11.9
2023-05-05T22:56:05.476Z,11.9
2023-05-05T22:59:05.492Z,11.9
2023-05-05T23:02:05.501Z,11.9
2023-05-05T23:05:05.507Z,11.9
2023-05-05T23:08:05.506Z,11.9
2023-05-05T23:11:05.492Z,11.9
2023-05-05T23:14:05.520Z,11.9
2023-05-05T23:17:05.642Z,11.9
2023-05-05T23:20:05.537Z,11.9
2023-05-05T23:23:05.535Z,11.9
2023-05-05T23:26:05.573Z,11.9
2023-05-05T23:29:05.540Z,11.9
2023-05-05T23:32:05.563Z,11.9
2023-05-05T23:35:05.543Z,11.9
2023-05-05T23:38:05.560Z,11.9
2023-05-05T23:41:05.585Z,11.9
2023-05-05T23:44:05.557Z,11.9
2023-05-05T23:47:05.576Z,11.9
2023-05-05T23:50:05.562Z,11.9
2023-05-05T23:53:05.568Z,11.9
2023-05-05T23:56:05.578Z,11.9
2023-05-05T23:59:05.567Z,11.9
